Time,TemperatureF,DewpointF,PressureIn,WindDirection,WindDirectionDegrees,WindSpeedMPH,WindSpeedGustMPH,Humidity,HourlyPrecipIn,Conditions,Clouds,dailyrainin,SolarRadiationWatts/m^2,SoftwareType,DateUTC
2013-01-11 00:02:00,21.0,9.0,-100.00,North,358,3.0,5.0,59,0.00,,,0.00,0.000000,,2013-01-11 07:02:00,
2013-01-11 00:12:00,21.0,9.0,-100.00,North,358,3.0,5.0,59,0.00,,,0.00,0.000000,,2013-01-11 07:12:00,
2013-01-11 00:22:00,21.0,9.0,-100.00,North,358,3.0,5.0,59,0.00,,,0.00,0.000000,,2013-01-11 07:22:00,
2013-01-11 00:42:00,20.0,10.0,-100.00,NW,317,2.0,5.0,64,0.00,,,-99.99,0.000000,,2013-01-11 07:42:00,
2013-01-11 00:52:00,20.0,10.0,-100.00,NW,317,2.0,5.0,64,0.00,,,-99.99,0.000000,,2013-01-11 07:52:00,
2013-01-11 01:02:00,20.0,10.0,-100.00,NW,317,2.0,5.0,64,0.00,,,-99.99,0.000000,,2013-01-11 08:02:00,
2013-01-11 01:12:00,20.0,10.0,-100.00,NW,317,2.0,5.0,64,0.00,,,-99.99,0.000000,,2013-01-11 08:12:00,
2013-01-11 01:22:00,20.0,10.0,-100.00,NW,317,2.0,5.0,64,0.00,,,-99.99,0.000000,,2013-01-11 08:22:00,
2013-01-11 01:42:00,21.0,12.0,-100.00,NNW,346,2.0,4.0,67,0.00,,,0.00,0.000000,,2013-01-11 08:42:00,
2013-01-11 01:53:00,21.0,12.0,-100.00,NNW,346,2.0,4.0,67,0.00,,,0.00,0.000000,,2013-01-11 08:53:00,
2013-01-11 02:02:00,21.0,12.0,-100.00,NNW,346,2.0,4.0,67,0.00,,,0.00,0.000000,,2013-01-11 09:02:00,
2013-01-11 02:12:00,21.0,12.0,-100.00,NNW,346,2.0,4.0,67,0.00,,,0.00,0.000000,,2013-01-11 09:12:00,
2013-01-11 02:22:00,21.0,12.0,-100.00,NNW,346,2.0,4.0,67,0.00,,,0.00,0.000000,,2013-01-11 09:22:00,
2013-01-11 02:42:00,21.0,12.0,-100.00,NNW,340,4.0,7.0,67,0.00,,,0.00,0.000000,,2013-01-11 09:42:00,
2013-01-11 02:52:00,21.0,12.0,-100.00,NNW,340,4.0,7.0,67,0.00,,,0.00,0.000000,,2013-01-11 09:52:00,
2013-01-11 03:02:00,21.0,12.0,-100.00,NNW,340,4.0,7.0,67,0.00,,,0.00,0.000000,,2013-01-11 10:02:00,
2013-01-11 03:12:00,21.0,12.0,-100.00,NNW,340,4.0,7.0,67,0.00,,,0.00,0.000000,,2013-01-11 10:12:00,
2013-01-11 03:22:00,21.0,12.0,-100.00,NNW,340,4.0,7.0,67,0.00,,,0.00,0.000000,,2013-01-11 10:22:00,
2013-01-11 03:43:00,21.0,13.0,-100.00,NW,321,4.0,6.0,71,0.00,,,0.00,0.000000,,2013-01-11 10:43:00,
2013-01-11 03:52:00,21.0,13.0,-100.00,NW,321,4.0,6.0,71,0.00,,,0.00,0.000000,,2013-01-11 10:52:00,
2013-01-11 04:03:00,21.0,13.0,-100.00,NW,321,4.0,6.0,71,0.00,,,0.00,0.000000,,2013-01-11 11:03:00,
2013-01-11 04:12:00,21.0,13.0,-100.00,NW,321,4.0,6.0,71,0.00,,,0.00,0.000000,,2013-01-11 11:12:00,
2013-01-11 04:22:00,21.0,13.0,-100.00,NW,321,4.0,6.0,71,0.00,,,0.00,0.000000,,2013-01-11 11:22:00,
2013-01-11 04:43:00,20.0,15.0,-100.00,NW,324,3.0,6.0,81,0.00,,,0.00,0.000000,,2013-01-11 11:43:00,
2013-01-11 04:53:00,20.0,15.0,-100.00,NW,324,3.0,6.0,81,0.00,,,0.00,0.000000,,2013-01-11 11:53:00,
2013-01-11 05:03:00,20.0,15.0,-100.00,NW,324,3.0,6.0,81,0.00,,,0.00,0.000000,,2013-01-11 12:03:00,
2013-01-11 05:12:00,20.0,15.0,-100.00,NW,324,3.0,6.0,81,0.00,,,0.00,0.000000,,2013-01-11 12:12:00,
2013-01-11 05:22:00,20.0,15.0,-100.00,NW,324,3.0,6.0,81,0.00,,,0.00,0.000000,,2013-01-11 12:22:00,
2013-01-11 05:43:00,20.0,16.0,-100.00,North,0,3.0,5.0,86,0.00,,,-99.99,0.000000,,2013-01-11 12:43:00,
2013-01-11 05:53:00,20.0,16.0,-100.00,North,0,3.0,5.0,86,0.00,,,-99.99,0.000000,,2013-01-11 12:53:00,
2013-01-11 06:03:00,20.0,16.0,-100.00,North,0,3.0,5.0,86,0.00,,,-99.99,0.000000,,2013-01-11 13:03:00,
2013-01-11 06:13:00,20.0,16.0,-100.00,North,0,3.0,5.0,86,0.00,,,-99.99,0.000000,,2013-01-11 13:13:00,
2013-01-11 06:22:00,20.0,16.0,-100.00,North,0,3.0,5.0,86,0.00,,,-99.99,0.000000,,2013-01-11 13:22:00,
2013-01-11 06:43:00,20.0,18.0,-100.00,NNW,333,3.0,5.0,90,0.00,,,-99.99,0.000000,,2013-01-11 13:43:00,
2013-01-11 06:53:00,20.0,18.0,-100.00,NNW,333,3.0,5.0,90,0.00,,,-99.99,0.000000,,2013-01-11 13:53:00,
2013-01-11 07:03:00,20.0,18.0,-100.00,NNW,333,3.0,5.0,90,0.00,,,-99.99,0.000000,,2013-01-11 14:03:00,
2013-01-11 07:12:00,20.0,18.0,-100.00,NNW,333,3.0,5.0,90,0.00,,,-99.99,0.000000,,2013-01-11 14:12:00,
2013-01-11 07:22:00,20.0,18.0,-100.00,NNW,333,3.0,5.0,90,0.00,,,-99.99,0.000000,,2013-01-11 14:22:00,
2013-01-11 07:23:00,20.0,16.0,-100.00,WSW,238,2.0,7.0,85,0.00,,,0.00,0.000000,,2013-01-11 14:23:00,
2013-01-11 07:43:00,20.0,16.0,-100.00,WSW,238,2.0,7.0,85,0.00,,,0.00,0.000000,,2013-01-11 14:43:00,
2013-01-11 07:53:00,20.0,16.0,-100.00,WSW,238,2.0,7.0,85,0.00,,,0.00,0.000000,,2013-01-11 14:53:00,
2013-01-11 08:03:00,20.0,16.0,-100.00,WSW,238,2.0,7.0,85,0.00,,,0.00,0.000000,,2013-01-11 15:03:00,
2013-01-11 08:13:00,20.0,16.0,-100.00,WSW,238,2.0,7.0,85,0.00,,,0.00,0.000000,,2013-01-11 15:13:00,
2013-01-11 08:43:00,20.0,11.0,-100.00,SE,142,2.0,11.0,68,0.00,,,0.00,15.000000,,2013-01-11 15:43:00,
2013-01-11 08:53:00,20.0,11.0,-100.00,SE,142,2.0,11.0,68,0.00,,,0.00,15.000000,,2013-01-11 15:53:00,
2013-01-11 09:03:00,20.0,11.0,-100.00,SE,142,2.0,11.0,68,0.00,,,0.00,15.000000,,2013-01-11 16:03:00,
2013-01-11 09:12:00,20.0,11.0,-100.00,SE,142,2.0,11.0,68,0.00,,,0.00,15.000000,,2013-01-11 16:12:00,
2013-01-11 09:22:00,20.0,11.0,-100.00,SE,142,2.0,11.0,68,0.00,,,0.00,15.000000,,2013-01-11 16:22:00,
2013-01-11 09:43:00,17.0,8.0,-100.00,WSW,239,3.0,8.0,68,0.00,,,0.00,84.000000,,2013-01-11 16:43:00,
2013-01-11 09:53:00,17.0,8.0,-100.00,WSW,239,3.0,8.0,68,0.00,,,0.00,84.000000,,2013-01-11 16:53:00,
2013-01-11 10:03:00,17.0,8.0,-100.00,WSW,239,3.0,8.0,68,0.00,,,0.00,84.000000,,2013-01-11 17:03:00,
2013-01-11 10:12:00,17.0,8.0,-100.00,WSW,239,3.0,8.0,68,0.00,,,0.00,84.000000,,2013-01-11 17:12:00,
2013-01-11 10:22:00,17.0,8.0,-100.00,WSW,239,3.0,8.0,68,0.00,,,0.00,84.000000,,2013-01-11 17:22:00,
2013-01-11 10:23:00,17.0,-3.0,-100.00,West,272,5.0,12.0,41,0.00,,,0.00,317.000000,,2013-01-11 17:23:00,
2013-01-11 10:43:00,17.0,-3.0,-100.00,West,272,5.0,12.0,41,0.00,,,0.00,317.000000,,2013-01-11 17:43:00,
2013-01-11 10:53:00,17.0,-3.0,-100.00,West,272,5.0,12.0,41,0.00,,,0.00,317.000000,,2013-01-11 17:53:00,
2013-01-11 11:03:00,17.0,-3.0,-100.00,West,272,5.0,12.0,41,0.00,,,0.00,317.000000,,2013-01-11 18:03:00,
2013-01-11 11:12:00,17.0,-3.0,-100.00,West,272,5.0,12.0,41,0.00,,,0.00,317.000000,,2013-01-11 18:12:00,
2013-01-11 11:43:00,18.0,-10.0,-100.00,WNW,295,5.0,17.0,28,0.00,,,0.00,357.000000,,2013-01-11 18:43:00,
2013-01-11 11:53:00,18.0,-10.0,-100.00,WNW,295,5.0,17.0,28,0.00,,,0.00,357.000000,,2013-01-11 18:53:00,
2013-01-11 12:03:00,18.0,-10.0,-100.00,WNW,295,5.0,17.0,28,0.00,,,0.00,357.000000,,2013-01-11 19:03:00,
2013-01-11 12:12:00,18.0,-10.0,-100.00,WNW,295,5.0,17.0,28,0.00,,,0.00,357.000000,,2013-01-11 19:12:00,
2013-01-11 12:22:00,18.0,-10.0,-100.00,WNW,295,5.0,17.0,28,0.00,,,0.00,357.000000,,2013-01-11 19:22:00,
2013-01-11 12:43:00,16.0,-11.0,-100.00,North,359,5.0,13.0,28,0.00,,,0.00,399.000000,,2013-01-11 19:43:00,
2013-01-11 12:53:00,16.0,-11.0,-100.00,North,359,5.0,13.0,28,0.00,,,0.00,399.000000,,2013-01-11 19:53:00,
2013-01-11 13:03:00,16.0,-11.0,-100.00,North,359,5.0,13.0,28,0.00,,,0.00,399.000000,,2013-01-11 20:03:00,
2013-01-11 13:12:00,16.0,-11.0,-100.00,North,359,5.0,13.0,28,0.00,,,0.00,399.000000,,2013-01-11 20:12:00,
2013-01-11 13:22:00,16.0,-11.0,-100.00,North,359,5.0,13.0,28,0.00,,,0.00,399.000000,,2013-01-11 20:22:00,
2013-01-11 13:23:00,15.0,-14.0,-100.00,NE,36,5.0,13.0,26,0.00,,,0.00,267.000000,,2013-01-11 20:23:00,
2013-01-11 13:43:00,15.0,-14.0,-100.00,NE,36,5.0,13.0,26,0.00,,,0.00,267.000000,,2013-01-11 20:43:00,
2013-01-11 13:53:00,15.0,-14.0,-100.00,NE,36,5.0,13.0,26,0.00,,,0.00,267.000000,,2013-01-11 20:53:00,
2013-01-11 14:03:00,15.0,-14.0,-100.00,NE,36,5.0,13.0,26,0.00,,,0.00,267.000000,,2013-01-11 21:03:00,
2013-01-11 14:12:00,15.0,-14.0,-100.00,NE,36,5.0,13.0,26,0.00,,,0.00,267.000000,,2013-01-11 21:12:00,
2013-01-11 14:43:00,14.0,-12.0,-100.00,ENE,69,3.0,14.0,29,0.00,,,0.00,271.000000,,2013-01-11 21:43:00,
2013-01-11 14:53:00,14.0,-12.0,-100.00,ENE,69,3.0,14.0,29,0.00,,,0.00,271.000000,,2013-01-11 21:53:00,
2013-01-11 15:02:00,14.0,-12.0,-100.00,ENE,69,3.0,14.0,29,0.00,,,0.00,271.000000,,2013-01-11 22:02:00,
2013-01-11 15:12:00,14.0,-12.0,-100.00,ENE,69,3.0,14.0,29,0.00,,,0.00,271.000000,,2013-01-11 22:12:00,
2013-01-11 15:22:00,14.0,-12.0,-100.00,ENE,69,3.0,14.0,29,0.00,,,0.00,271.000000,,2013-01-11 22:22:00,
2013-01-11 15:43:00,12.0,-5.0,-100.00,NNW,334,2.0,9.0,46,0.00,,,0.00,201.000000,,2013-01-11 22:43:00,
2013-01-11 15:53:00,12.0,-5.0,-100.00,NNW,334,2.0,9.0,46,0.00,,,0.00,201.000000,,2013-01-11 22:53:00,
2013-01-11 16:02:00,12.0,-5.0,-100.00,NNW,334,2.0,9.0,46,0.00,,,0.00,201.000000,,2013-01-11 23:02:00,
2013-01-11 16:13:00,12.0,-5.0,-100.00,NNW,334,2.0,9.0,46,0.00,,,0.00,201.000000,,2013-01-11 23:13:00,
2013-01-11 16:22:00,12.0,-5.0,-100.00,NNW,334,2.0,9.0,46,0.00,,,0.00,201.000000,,2013-01-11 23:22:00,
2013-01-11 16:43:00,11.0,-7.0,-100.00,SSW,200,2.0,10.0,43,0.00,,,0.00,85.000000,,2013-01-11 23:43:00,
2013-01-11 16:53:00,11.0,-7.0,-100.00,SSW,200,2.0,10.0,43,0.00,,,0.00,85.000000,,2013-01-11 23:53:00,
2013-01-11 17:02:00,11.0,-7.0,-100.00,SSW,200,2.0,10.0,43,0.00,,,0.00,85.000000,,2013-01-12 00:02:00,
2013-01-11 17:12:00,11.0,-7.0,-100.00,SSW,200,2.0,10.0,43,0.00,,,0.00,85.000000,,2013-01-12 00:12:00,
2013-01-11 17:22:00,11.0,-7.0,-100.00,SSW,200,2.0,10.0,43,0.00,,,0.00,85.000000,,2013-01-12 00:22:00,
2013-01-11 17:43:00,10.0,-8.0,-100.00,West,263,4.0,8.0,43,0.00,,,0.00,12.000000,,2013-01-12 00:43:00,
2013-01-11 17:53:00,10.0,-8.0,-100.00,West,263,4.0,8.0,43,0.00,,,0.00,12.000000,,2013-01-12 00:53:00,
2013-01-11 18:02:00,10.0,-8.0,-100.00,West,263,4.0,8.0,43,0.00,,,0.00,12.000000,,2013-01-12 01:02:00,
2013-01-11 18:12:00,10.0,-8.0,-100.00,West,263,4.0,8.0,43,0.00,,,0.00,12.000000,,2013-01-12 01:12:00,
2013-01-11 18:22:00,10.0,-8.0,-100.00,West,263,4.0,8.0,43,0.00,,,0.00,12.000000,,2013-01-12 01:22:00,
2013-01-11 18:43:00,9.0,-9.0,-100.00,NW,310,2.0,9.0,42,0.00,,,0.00,0.000000,,2013-01-12 01:43:00,
2013-01-11 18:52:00,9.0,-9.0,-100.00,NW,310,2.0,9.0,42,0.00,,,0.00,0.000000,,2013-01-12 01:52:00,
2013-01-11 19:02:00,9.0,-9.0,-100.00,NW,310,2.0,9.0,42,0.00,,,0.00,0.000000,,2013-01-12 02:02:00,
2013-01-11 19:12:00,9.0,-9.0,-100.00,NW,310,2.0,9.0,42,0.00,,,0.00,0.000000,,2013-01-12 02:12:00,
2013-01-11 19:22:00,9.0,-9.0,-100.00,NW,310,2.0,9.0,42,0.00,,,0.00,0.000000,,2013-01-12 02:22:00,
2013-01-11 19:43:00,7.0,-11.0,-100.00,WSW,250,1.0,8.0,43,0.00,,,0.00,0.000000,,2013-01-12 02:43:00,
2013-01-11 19:53:00,7.0,-11.0,-100.00,WSW,250,1.0,8.0,43,0.00,,,0.00,0.000000,,2013-01-12 02:53:00,
2013-01-11 20:02:00,7.0,-11.0,-100.00,WSW,250,1.0,8.0,43,0.00,,,0.00,0.000000,,2013-01-12 03:02:00,
2013-01-11 20:12:00,7.0,-11.0,-100.00,WSW,250,1.0,8.0,43,0.00,,,0.00,0.000000,,2013-01-12 03:12:00,
2013-01-11 20:22:00,7.0,-11.0,-100.00,WSW,250,1.0,8.0,43,0.00,,,0.00,0.000000,,2013-01-12 03:22:00,
2013-01-11 20:43:00,7.0,-9.0,-100.00,South,181,3.0,7.0,46,0.00,,,0.00,0.000000,,2013-01-12 03:43:00,
2013-01-11 20:53:00,7.0,-9.0,-100.00,South,181,3.0,7.0,46,0.00,,,0.00,0.000000,,2013-01-12 03:53:00,
2013-01-11 21:02:00,7.0,-9.0,-100.00,South,181,3.0,7.0,46,0.00,,,0.00,0.000000,,2013-01-12 04:02:00,
2013-01-11 21:12:00,7.0,-9.0,-100.00,South,181,3.0,7.0,46,0.00,,,0.00,0.000000,,2013-01-12 04:12:00,
2013-01-11 21:22:00,7.0,-9.0,-100.00,South,181,3.0,7.0,46,0.00,,,0.00,0.000000,,2013-01-12 04:22:00,
2013-01-11 21:43:00,8.0,-11.0,-100.00,WNW,288,3.0,7.0,40,0.00,,,0.00,0.000000,,2013-01-12 04:43:00,
2013-01-11 21:52:00,8.0,-11.0,-100.00,WNW,288,3.0,7.0,40,0.00,,,0.00,0.000000,,2013-01-12 04:52:00,
2013-01-11 22:03:00,8.0,-11.0,-100.00,WNW,288,3.0,7.0,40,0.00,,,0.00,0.000000,,2013-01-12 05:03:00,
2013-01-11 22:12:00,8.0,-11.0,-100.00,WNW,288,3.0,7.0,40,0.00,,,0.00,0.000000,,2013-01-12 05:12:00,
2013-01-11 22:22:00,8.0,-11.0,-100.00,WNW,288,3.0,7.0,40,0.00,,,0.00,0.000000,,2013-01-12 05:22:00,
2013-01-11 22:42:00,5.0,-8.0,-100.00,SE,136,1.0,7.0,55,0.00,,,0.00,0.000000,,2013-01-12 05:42:00,
2013-01-11 22:52:00,5.0,-8.0,-100.00,SE,136,1.0,7.0,55,0.00,,,0.00,0.000000,,2013-01-12 05:52:00,
2013-01-11 23:02:00,5.0,-8.0,-100.00,SE,136,1.0,7.0,55,0.00,,,0.00,0.000000,,2013-01-12 06:02:00,
2013-01-11 23:12:00,5.0,-8.0,-100.00,SE,136,1.0,7.0,55,0.00,,,0.00,0.000000,,2013-01-12 06:12:00,
2013-01-11 23:22:00,5.0,-8.0,-100.00,SE,136,1.0,7.0,55,0.00,,,0.00,0.000000,,2013-01-12 06:22:00,
2013-01-11 23:43:00,2.0,-8.0,-100.00,NW,316,1.0,3.0,62,0.00,,,0.00,0.000000,,2013-01-12 06:43:00,
2013-01-11 23:53:00,2.0,-8.0,-100.00,NW,316,1.0,3.0,62,0.00,,,0.00,0.000000,,2013-01-12 06:53:00,